Holly Hills, Indiana
Current Conditions -  °F | °C
As of 12:53 PM on Thursday 30 Oct 2014 (Local Time) from KHUF Reporting Station
Clear Clear  
Wind Chill: 50°   Ceiling: Unl
Heat Index: 50°   Visibility: 10mi
Dew Point: 34°   Wind: 5mph
Humidity: 54%   Direction: 190°S
Pressure: 30.16"   Gusts: NA
Location:  39.3587°N, 87.4056°W
Report Text: KHUF 301653Z 19004KT 10SM CLR 10/01 A3016 RMK AO2 SLP215 T01000011
Loading
Personal Weather Stations






























Interactive Weather Map
Tropical Storm Tracking
New forecast layout! Learn more

10-Day Weather Forecast

Advertisements
Track Severe Weather on mobile